Private Wetterstation Wechselburg
Wetterdaten: Dienstag, 11.06.2013
Datum Zeit Temp. +2m Bodentemp. Temp.+5cm Temp. Wind Windchill X Diff Temp. Feuchte +2m Feuchte +5cm Sonnenschein Luftdruck Regen Wind Richtung Richtung Sonnenschein UV Taupunkt Windchill Windben
11.06.2013 00:00 10,5 C 22,3 C 12,0 C 10,8 C 10,8 C 0,3 C 89 % 86 % 0 % 1010,7 hPa 0,0 l/m 0,0 km/h (0 Bft) W-SW 247 0 min 0,0 UV-I 8,8 C 10,8 C 0,0 km/h (0 Bft)
11.06.2013 00:05 10,5 C 22,3 C 12,0 C 10,8 C 10,8 C 0,3 C 89 % 86 % 0 % 1010,7 hPa 0,0 l/m 0,0 km/h (0 Bft) S-SW 202 0 min 0,0 UV-I 8,8 C 10,8 C 0,0 km/h (0 Bft)
11.06.2013 00:10 10,4 C 22,3 C 11,9 C 10,6 C 10,6 C 0,2 C 88 % 86 % 0 % 1010,7 hPa 0,0 l/m 0,0 km/h (0 Bft) W-NW 292 0 min 0,0 UV-I 8,5 C 10,6 C 0,0 km/h (0 Bft)
11.06.2013 00:15 10,3 C 22,3 C 11,9 C 10,5 C 10,5 C 0,2 C 88 % 86 % 0 % 1010,8 hPa 0,0 l/m 0,0 km/h (0 Bft) O-NO 67 0 min 0,0 UV-I 8,4 C 10,5 C 0,0 km/h (0 Bft)
11.06.2013 00:20 10,3 C 22,4 C 11,9 C 10,6 C 10,6 C 0,3 C 89 % 86 % 0 % 1010,8 hPa 0,0 l/m 0,0 km/h (0 Bft) O-NO 67 0 min 0,0 UV-I 8,6 C 10,6 C 0,0 km/h (0 Bft)
11.06.2013 00:25 10,4 C 22,4 C 11,9 C 10,7 C 10,7 C 0,3 C 89 % 86 % 0 % 1010,8 hPa 0,0 l/m 0,0 km/h (0 Bft) S-SW 202 0 min 0,0 UV-I 8,7 C 10,7 C 0,0 km/h (0 Bft)
11.06.2013 00:30 10,4 C 22,3 C 11,9 C 10,8 C 10,8 C 0,4 C 89 % 86 % 0 % 1010,8 hPa 0,0 l/m 0,0 km/h (0 Bft) W-NW 292 0 min 0,0 UV-I 8,7 C 10,8 C 0,0 km/h (0 Bft)
11.06.2013 00:35 10,3 C 22,3 C 11,9 C 10,6 C 10,6 C 0,3 C 89 % 86 % 0 % 1010,7 hPa 0,0 l/m 0,0 km/h (0 Bft) S 180 0 min 0,0 UV-I 8,6 C 10,6 C 0,0 km/h (0 Bft)
11.06.2013 00:41 10,3 C 22,3 C 11,9 C 10,4 C 10,4 C 0,1 C 89 % 86 % 0 % 1010,7 hPa 0,0 l/m 0,0 km/h (0 Bft) N 0 0 min 0,0 UV-I 8,6 C 10,4 C 0,0 km/h (0 Bft)
11.06.2013 01:00 10,1 C 22,3 C 11,7 C 10,1 C 10,1 C 0,0 C 89 % 86 % 0 % 1011,0 hPa 0,0 l/m 0,0 km/h (0 Bft) O-NO 67 0 min 0,0 UV-I 8,4 C 10,1 C 0,0 km/h (0 Bft)
11.06.2013 01:05 10,1 C 22,3 C 11,6 C 10,1 C 10,1 C 0,0 C 89 % 86 % 0 % 1011,0 hPa 0,0 l/m 0,0 km/h (0 Bft) S-SW 202 0 min 0,0 UV-I 8,4 C 10,1 C 0,0 km/h (0 Bft)
11.06.2013 01:10 9,9 C 22,3 C 11,5 C 10,0 C 10,0 C 0,1 C 89 % 86 % 0 % 1011,0 hPa 0,0 l/m 0,0 km/h (0 Bft) N-NW 337 0 min 0,0 UV-I 8,2 C 10,0 C 0,0 km/h (0 Bft)
11.06.2013 01:15 9,9 C 22,3 C 11,5 C 10,0 C 10,0 C 0,1 C 90 % 86 % 0 % 1011,2 hPa 0,0 l/m 0,0 km/h (0 Bft) O 90 0 min 0,0 UV-I 8,3 C 10,0 C 0,0 km/h (0 Bft)
11.06.2013 01:20 10,0 C 22,3 C 11,5 C 10,1 C 10,1 C 0,1 C 90 % 86 % 0 % 1011,2 hPa 0,0 l/m 0,0 km/h (0 Bft) O 90 0 min 0,0 UV-I 8,4 C 10,1 C 0,0 km/h (0 Bft)
11.06.2013 01:25 10,1 C 22,2 C 11,4 C 10,2 C 10,2 C 0,1 C 90 % 86 % 0 % 1011,2 hPa 0,0 l/m 0,0 km/h (0 Bft) O-SO 112 0 min 0,0 UV-I 8,5 C 10,2 C 0,0 km/h (0 Bft)
11.06.2013 01:30 10,0 C 22,2 C 11,4 C 10,2 C 10,2 C 0,2 C 90 % 86 % 0 % 1011,2 hPa 0,0 l/m 0,0 km/h (0 Bft) O-NO 67 0 min 0,0 UV-I 8,4 C 10,2 C 1,6 km/h (1 Bft)
11.06.2013 01:35 10,0 C 22,2 C 11,5 C 10,2 C 10,2 C 0,2 C 90 % 86 % 0 % 1011,4 hPa 0,0 l/m 0,2 km/h (0 Bft) S 180 0 min 0,0 UV-I 8,4 C 10,2 C 0,0 km/h (0 Bft)
11.06.2013 01:40 9,9 C 22,2 C 11,5 C 10,0 C 10,0 C 0,1 C 90 % 87 % 0 % 1011,4 hPa 0,0 l/m 0,2 km/h (0 Bft) O-NO 67 0 min 0,0 UV-I 8,3 C 10,0 C 0,0 km/h (0 Bft)
11.06.2013 01:45 9,9 C 22,2 C 11,3 C 10,0 C 10,0 C 0,1 C 90 % 86 % 0 % 1011,4 hPa 0,0 l/m 0,0 km/h (0 Bft) S 180 0 min 0,0 UV-I 8,3 C 10,0 C 0,0 km/h (0 Bft)
11.06.2013 01:50 9,8 C 22,2 C 11,2 C 9,9 C 9,9 C 0,1 C 90 % 86 % 0 % 1011,4 hPa 0,0 l/m 0,0 km/h (0 Bft) O-SO 112 0 min 0,0 UV-I 8,2 C 9,9 C 0,0 km/h (0 Bft)
11.06.2013 01:55 9,7 C 22,2 C 11,3 C 9,9 C 9,9 C 0,2 C 90 % 86 % 0 % 1011,3 hPa 0,0 l/m 0,0 km/h (0 Bft) O-NO 67 0 min 0,0 UV-I 8,1 C 9,9 C 0,0 km/h (0 Bft)
11.06.2013 02:00 9,7 C 22,2 C 11,2 C 9,8 C 9,8 C 0,1 C 90 % 86 % 0 % 1011,3 hPa 0,0 l/m 0,0 km/h (0 Bft) O-SO 112 0 min 0,0 UV-I 8,1 C 9,8 C 0,0 km/h (0 Bft)
11.06.2013 02:05 9,6 C 22,2 C 11,1 C 9,8 C 9,8 C 0,2 C 90 % 86 % 0 % 1011,3 hPa 0,0 l/m 0,0 km/h (0 Bft) O-NO 67 0 min 0,0 UV-I 8,0 C 9,8 C 0,0 km/h (0 Bft)
11.06.2013 02:10 9,7 C 22,1 C 11,0 C 9,8 C 9,8 C 0,1 C 90 % 86 % 0 % 1011,3 hPa 0,0 l/m 0,0 km/h (0 Bft) SW 225 0 min 0,0 UV-I 8,1 C 9,8 C 0,0 km/h (0 Bft)
11.06.2013 02:15 9,6 C 22,1 C 11,1 C 9,6 C 9,6 C 0,0 C 90 % 86 % 0 % 1011,6 hPa 0,0 l/m 0,0 km/h (0 Bft) N 360 0 min 0,0 UV-I 8,0 C 9,6 C 0,0 km/h (0 Bft)
11.06.2013 02:20 9,5 C 22,1 C 11,0 C 9,5 C 9,4 C 0,0 C 90 % 86 % 0 % 1011,6 hPa 0,0 l/m 0,2 km/h (0 Bft) W-SW 247 0 min 0,0 UV-I 7,9 C 9,4 C 2,3 km/h (1 Bft)
11.06.2013 02:25 9,2 C 22,1 C 10,9 C 9,3 C 9,3 C 0,1 C 90 % 86 % 0 % 1011,6 hPa 0,0 l/m 0,2 km/h (0 Bft) SW 225 0 min 0,0 UV-I 7,6 C 9,3 C 0,0 km/h (0 Bft)
11.06.2013 02:30 9,1 C 22,1 C 10,7 C 9,1 C 9,0 C 0,0 C 90 % 86 % 0 % 1011,6 hPa 0,0 l/m 0,0 km/h (0 Bft) W-SW 247 0 min 0,0 UV-I 7,5 C 9,0 C 0,0 km/h (0 Bft)
11.06.2013 02:35 9,0 C 22,1 C 10,5 C 9,0 C 8,9 C 0,0 C 90 % 86 % 0 % 1011,4 hPa 0,0 l/m 0,0 km/h (0 Bft) W-NW 292 0 min 0,0 UV-I 7,4 C 8,9 C 0,0 km/h (0 Bft)
11.06.2013 02:40 8,8 C 22,1 C 10,5 C 8,8 C 8,8 C 0,0 C 90 % 86 % 0 % 1011,4 hPa 0,0 l/m 0,0 km/h (0 Bft) W-SW 247 0 min 0,0 UV-I 7,3 C 8,8 C 0,0 km/h (0 Bft)
11.06.2013 02:45 8,8 C 22,1 C 10,5 C 8,8 C 8,8 C 0,0 C 90 % 86 % 0 % 1011,4 hPa 0,0 l/m 0,0 km/h (0 Bft) W 270 0 min 0,0 UV-I 7,3 C 8,8 C 0,0 km/h (0 Bft)
11.06.2013 02:50 8,7 C 22,1 C 10,4 C 8,8 C 8,8 C 0,1 C 90 % 86 % 0 % 1011,4 hPa 0,0 l/m 0,0 km/h (0 Bft) SW 225 0 min 0,0 UV-I 7,2 C 8,8 C 0,0 km/h (0 Bft)
11.06.2013 02:55 8,6 C 22,0 C 10,5 C 8,8 C 8,8 C 0,2 C 90 % 86 % 0 % 1011,4 hPa 0,0 l/m 0,0 km/h (0 Bft) SW 225 0 min 0,0 UV-I 7,1 C 8,8 C 0,0 km/h (0 Bft)
11.06.2013 03:00 8,5 C 22,0 C 10,3 C 8,6 C 8,6 C 0,1 C 90 % 86 % 0 % 1011,4 hPa 0,0 l/m 0,0 km/h (0 Bft) SW 225 0 min 0,0 UV-I 7,0 C 8,6 C 0,0 km/h (0 Bft)
11.06.2013 03:05 8,5 C 22,0 C 10,3 C 8,6 C 8,6 C 0,1 C 90 % 86 % 0 % 1011,4 hPa 0,0 l/m 0,0 km/h (0 Bft) SW 225 0 min 0,0 UV-I 7,0 C 8,6 C 0,0 km/h (0 Bft)
11.06.2013 03:10 8,4 C 22,0 C 10,2 C 8,5 C 8,5 C 0,1 C 90 % 86 % 0 % 1011,4 hPa 0,0 l/m 0,0 km/h (0 Bft) S 180 0 min 0,0 UV-I 6,9 C 8,5 C 0,0 km/h (0 Bft)
11.06.2013 03:15 8,3 C 22,0 C 10,2 C 8,4 C 8,4 C 0,1 C 90 % 86 % 0 % 1011,8 hPa 0,0 l/m 0,0 km/h (0 Bft) S 180 0 min 0,0 UV-I 6,8 C 8,4 C 0,0 km/h (0 Bft)
11.06.2013 03:20 8,3 C 22,0 C 10,0 C 8,4 C 8,4 C 0,1 C 90 % 86 % 0 % 1011,8 hPa 0,0 l/m 0,0 km/h (0 Bft) W-SW 247 0 min 0,0 UV-I 6,8 C 8,4 C 0,0 km/h (0 Bft)
11.06.2013 03:25 8,3 C 22,0 C 10,1 C 8,5 C 8,5 C 0,2 C 90 % 86 % 0 % 1011,8 hPa 0,0 l/m 0,0 km/h (0 Bft) SW 225 0 min 0,0 UV-I 6,8 C 8,5 C 0,0 km/h (0 Bft)
11.06.2013 03:30 8,3 C 22,0 C 10,0 C 8,5 C 8,5 C 0,2 C 90 % 86 % 0 % 1011,8 hPa 0,0 l/m 0,0 km/h (0 Bft) SW 225 0 min 0,0 UV-I 6,8 C 8,5 C 0,0 km/h (0 Bft)
11.06.2013 03:35 8,3 C 22,0 C 10,1 C 8,6 C 8,6 C 0,3 C 90 % 86 % 0 % 1011,7 hPa 0,0 l/m 0,0 km/h (0 Bft) SW 225 0 min 0,0 UV-I 6,8 C 8,6 C 0,0 km/h (0 Bft)
11.06.2013 03:40 8,3 C 22,0 C 10,2 C 8,7 C 8,7 C 0,4 C 90 % 86 % 0 % 1011,7 hPa 0,0 l/m 0,0 km/h (0 Bft) S 180 0 min 0,0 UV-I 6,8 C 8,7 C 0,0 km/h (0 Bft)
11.06.2013 03:45 8,3 C 22,0 C 10,3 C 8,7 C 8,7 C 0,4 C 90 % 87 % 0 % 1011,7 hPa 0,0 l/m 0,0 km/h (0 Bft) SW 225 0 min 0,0 UV-I 6,8 C 8,7 C 0,0 km/h (0 Bft)
11.06.2013 03:50 8,3 C 21,9 C 10,1 C 8,6 C 8,6 C 0,3 C 90 % 87 % 0 % 1011,7 hPa 0,0 l/m 0,0 km/h (0 Bft) SW 225 0 min 0,0 UV-I 6,8 C 8,6 C 0,0 km/h (0 Bft)
11.06.2013 03:55 8,2 C 21,9 C 10,0 C 8,6 C 8,6 C 0,4 C 90 % 87 % 0 % 1011,9 hPa 0,0 l/m 0,0 km/h (0 Bft) S-SO 157 0 min 0,0 UV-I 6,7 C 8,6 C 0,0 km/h (0 Bft)
11.06.2013 04:00 8,1 C 21,9 C 10,0 C 8,6 C 8,6 C 0,5 C 91 % 87 % 0 % 1011,9 hPa 0,0 l/m 0,0 km/h (0 Bft) SW 225 0 min 0,0 UV-I 6,7 C 8,6 C 0,0 km/h (0 Bft)
11.06.2013 04:05 8,1 C 21,9 C 10,1 C 8,6 C 8,6 C 0,5 C 91 % 87 % 0 % 1011,9 hPa 0,0 l/m 0,0 km/h (0 Bft) SW 225 0 min 0,0 UV-I 6,7 C 8,6 C 0,0 km/h (0 Bft)
11.06.2013 04:10 8,1 C 21,9 C 10,1 C 8,6 C 8,6 C 0,5 C 91 % 87 % 0 % 1011,9 hPa 0,0 l/m 0,0 km/h (0 Bft) SW 225 0 min 0,0 UV-I 6,7 C 8,6 C 0,0 km/h (0 Bft)
11.06.2013 04:15 8,1 C 21,9 C 10,1 C 8,6 C 8,6 C 0,5 C 91 % 87 % 0 % 1012,0 hPa 0,0 l/m 0,0 km/h (0 Bft) SW 225 0 min 0,0 UV-I 6,7 C 8,6 C 0,0 km/h (0 Bft)
11.06.2013 04:20 8,0 C 21,9 C 10,0 C 8,6 C 8,6 C 0,6 C 91 % 87 % 0 % 1012,0 hPa 0,0 l/m 0,0 km/h (0 Bft) W 270 0 min 0,0 UV-I 6,6 C 8,6 C 0,0 km/h (0 Bft)
11.06.2013 04:25 8,0 C 21,9 C 10,0 C 8,4 C 8,4 C 0,4 C 91 % 87 % 0 % 1012,0 hPa 0,0 l/m 0,0 km/h (0 Bft) SW 225 0 min 0,0 UV-I 6,6 C 8,4 C 0,0 km/h (0 Bft)
11.06.2013 04:30 8,0 C 21,8 C 9,9 C 8,3 C 8,3 C 0,3 C 91 % 87 % 0 % 1012,0 hPa 0,0 l/m 0,0 km/h (0 Bft) S-SO 157 0 min 0,0 UV-I 6,6 C 8,3 C 0,0 km/h (0 Bft)
11.06.2013 04:35 8,0 C 21,8 C 9,9 C 8,3 C 8,3 C 0,3 C 91 % 87 % 0 % 1012,1 hPa 0,0 l/m 0,0 km/h (0 Bft) O-SO 112 0 min 0,0 UV-I 6,6 C 8,3 C 0,0 km/h (0 Bft)
11.06.2013 04:40 8,1 C 21,8 C 9,8 C 8,3 C 8,3 C 0,2 C 91 % 87 % 0 % 1012,1 hPa 0,0 l/m 0,0 km/h (0 Bft) O-SO 112 0 min 0,0 UV-I 6,7 C 8,3 C 0,0 km/h (0 Bft)
11.06.2013 04:45 8,0 C 21,8 C 9,9 C 8,4 C 8,4 C 0,4 C 91 % 87 % 0 % 1012,1 hPa 0,0 l/m 0,0 km/h (0 Bft) O 90 0 min 0,0 UV-I 6,6 C 8,4 C 0,0 km/h (0 Bft)
11.06.2013 04:50 8,0 C 21,8 C 9,7 C 8,4 C 8,4 C 0,4 C 91 % 86 % 0 % 1012,1 hPa 0,0 l/m 0,0 km/h (0 Bft) W-NW 292 0 min 0,0 UV-I 6,6 C 8,4 C 0,0 km/h (0 Bft)
11.06.2013 04:55 8,0 C 21,8 C 9,8 C 8,2 C 8,2 C 0,2 C 91 % 87 % 0 % 1012,6 hPa 0,0 l/m 0,0 km/h (0 Bft) W-SW 247 0 min 0,0 UV-I 6,6 C 8,2 C 0,0 km/h (0 Bft)
11.06.2013 05:00 8,0 C 21,8 C 9,7 C 8,2 C 8,2 C 0,2 C 91 % 86 % 0 % 1012,6 hPa 0,0 l/m 0,0 km/h (0 Bft) S-SW 202 0 min 0,0 UV-I 6,6 C 8,2 C 0,0 km/h (0 Bft)
11.06.2013 05:05 7,9 C 21,8 C 9,7 C 8,2 C 8,2 C 0,3 C 91 % 86 % 0 % 1012,6 hPa 0,0 l/m 0,0 km/h (0 Bft) W-NW 292 0 min 0,0 UV-I 6,5 C 8,2 C 0,0 km/h (0 Bft)
11.06.2013 05:10 7,9 C 21,8 C 9,7 C 8,2 C 8,2 C 0,3 C 91 % 86 % 8 % 1012,6 hPa 0,0 l/m 0,0 km/h (0 Bft) W 270 5 min 0,0 UV-I 6,5 C 8,2 C 0,0 km/h (0 Bft)
11.06.2013 05:15 7,9 C 21,7 C 9,6 C 8,2 C 8,2 C 0,3 C 91 % 86 % 8 % 1013,0 hPa 0,0 l/m 0,0 km/h (0 Bft) W-NW 292 5 min 0,0 UV-I 6,5 C 8,2 C 0,0 km/h (0 Bft)
11.06.2013 05:20 7,8 C 21,7 C 9,7 C 8,2 C 8,2 C 0,4 C 91 % 86 % 11 % 1013,0 hPa 0,0 l/m 0,0 km/h (0 Bft) O 90 5 min 0,0 UV-I 6,4 C 8,2 C 0,0 km/h (0 Bft)
11.06.2013 05:25 7,9 C 21,8 C 9,7 C 8,3 C 8,3 C 0,4 C 91 % 86 % 11 % 1013,0 hPa 0,0 l/m 0,0 km/h (0 Bft) SW 225 0 min 0,0 UV-I 6,5 C 8,3 C 0,0 km/h (0 Bft)
11.06.2013 05:30 7,9 C 21,7 C 9,7 C 8,4 C 8,4 C 0,5 C 91 % 86 % 13 % 1013,0 hPa 0,0 l/m 0,0 km/h (0 Bft) SW 225 0 min 0,0 UV-I 6,5 C 8,4 C 0,0 km/h (0 Bft)
11.06.2013 05:35 7,9 C 21,7 C 9,8 C 8,6 C 8,6 C 0,7 C 91 % 87 % 18 % 1012,6 hPa 0,0 l/m 0,0 km/h (0 Bft) W-SW 247 0 min 0,0 UV-I 6,5 C 8,6 C 0,0 km/h (0 Bft)
11.06.2013 05:40 7,9 C 21,7 C 9,9 C 8,7 C 8,7 C 0,8 C 91 % 87 % 21 % 1012,6 hPa 0,0 l/m 0,0 km/h (0 Bft) S-SW 202 0 min 0,0 UV-I 6,5 C 8,7 C 0,0 km/h (0 Bft)
11.06.2013 05:45 7,9 C 21,7 C 9,9 C 8,8 C 8,8 C 0,9 C 91 % 87 % 24 % 1012,6 hPa 0,0 l/m 0,0 km/h (0 Bft) S-SW 202 0 min 0,0 UV-I 6,5 C 8,8 C 0,0 km/h (0 Bft)
11.06.2013 05:50 8,0 C 21,7 C 9,9 C 8,8 C 8,8 C 0,8 C 91 % 87 % 21 % 1012,6 hPa 0,0 l/m 0,0 km/h (0 Bft) SW 225 0 min 0,0 UV-I 6,6 C 8,8 C 0,0 km/h (0 Bft)
11.06.2013 05:55 8,0 C 21,7 C 9,9 C 8,8 C 8,8 C 0,8 C 91 % 87 % 21 % 1012,8 hPa 0,0 l/m 0,0 km/h (0 Bft) S-SW 202 0 min 0,0 UV-I 6,6 C 8,8 C 0,0 km/h (0 Bft)
11.06.2013 06:00 8,0 C 21,7 C 10,0 C 8,9 C 8,9 C 0,9 C 91 % 87 % 24 % 1012,8 hPa 0,0 l/m 0,0 km/h (0 Bft) W-NW 292 0 min 0,0 UV-I 6,6 C 8,9 C 0,0 km/h (0 Bft)
11.06.2013 06:05 8,0 C 21,6 C 10,0 C 8,9 C 8,9 C 0,9 C 91 % 87 % 24 % 1012,8 hPa 0,0 l/m 0,0 km/h (0 Bft) N-NO 22 0 min 0,0 UV-I 6,6 C 8,9 C 0,0 km/h (0 Bft)
11.06.2013 06:10 8,1 C 21,6 C 10,0 C 9,0 C 9,0 C 0,9 C 91 % 87 % 24 % 1012,8 hPa 0,0 l/m 0,0 km/h (0 Bft) SW 225 0 min 0,0 UV-I 6,7 C 9,0 C 0,0 km/h (0 Bft)
11.06.2013 06:15 8,0 C 21,6 C 10,1 C 9,1 C 9,1 C 1,1 C 91 % 87 % 29 % 1012,6 hPa 0,0 l/m 0,0 km/h (0 Bft) SW 225 0 min 0,0 UV-I 6,6 C 9,1 C 0,0 km/h (0 Bft)
11.06.2013 06:20 8,1 C 21,6 C 10,2 C 9,3 C 9,3 C 1,2 C 91 % 87 % 32 % 1012,6 hPa 0,0 l/m 0,0 km/h (0 Bft) W-SW 247 0 min 0,0 UV-I 6,7 C 9,3 C 0,0 km/h (0 Bft)
11.06.2013 06:25 8,3 C 21,5 C 10,4 C 9,4 C 9,4 C 1,1 C 91 % 87 % 29 % 1012,6 hPa 0,0 l/m 0,0 km/h (0 Bft) W-NW 292 0 min 0,0 UV-I 6,9 C 9,4 C 0,0 km/h (0 Bft)
11.06.2013 06:30 8,5 C 21,5 C 10,5 C 9,6 C 9,6 C 1,1 C 92 % 87 % 29 % 1012,6 hPa 0,0 l/m 0,0 km/h (0 Bft) W 270 0 min 0,1 UV-I 7,3 C 9,6 C 0,0 km/h (0 Bft)
11.06.2013 06:35 8,5 C 21,5 C 10,7 C 9,8 C 9,8 C 1,3 C 92 % 87 % 34 % 1012,9 hPa 0,0 l/m 0,0 km/h (0 Bft) N-NW 337 0 min 0,1 UV-I 7,3 C 9,8 C 0,0 km/h (0 Bft)
11.06.2013 06:41 8,7 C 21,5 C 10,9 C 10,1 C 10,1 C 1,4 C 92 % 86 % 37 % 1012,9 hPa 0,0 l/m 0,0 km/h (0 Bft) N 0 0 min 0,2 UV-I 7,5 C 10,1 C 0,0 km/h (0 Bft)
11.06.2013 07:00 9,1 C 21,5 C 11,2 C 10,8 C 10,8 C 1,7 C 92 % 86 % 45 % 1013,2 hPa 0,0 l/m 0,0 km/h (0 Bft) SW 225 0 min 0,3 UV-I 7,9 C 10,8 C 0,0 km/h (0 Bft)
11.06.2013 07:05 9,2 C 21,5 C 11,5 C 11,0 C 11,0 C 1,8 C 92 % 87 % 47 % 1013,2 hPa 0,0 l/m 0,0 km/h (0 Bft) SW 225 0 min 0,3 UV-I 8,0 C 11,0 C 0,0 km/h (0 Bft)
11.06.2013 07:10 9,3 C 21,5 C 11,6 C 11,3 C 11,3 C 2,0 C 92 % 87 % 53 % 1013,2 hPa 0,0 l/m 0,2 km/h (0 Bft) W-SW 247 0 min 0,3 UV-I 8,1 C 11,3 C 2,1 km/h (1 Bft)
11.06.2013 07:15 9,4 C 21,5 C 11,6 C 11,3 C 11,3 C 1,9 C 92 % 87 % 50 % 1013,2 hPa 0,0 l/m 0,2 km/h (0 Bft) N-NO 22 0 min 0,3 UV-I 8,2 C 11,3 C 0,0 km/h (0 Bft)
11.06.2013 07:20 9,7 C 21,4 C 11,9 C 11,6 C 11,6 C 1,9 C 93 % 86 % 50 % 1013,2 hPa 0,0 l/m 0,2 km/h (0 Bft) S 180 0 min 0,5 UV-I 8,6 C 11,6 C 2,4 km/h (1 Bft)
11.06.2013 07:25 9,7 C 21,4 C 11,9 C 12,5 C 12,5 C 2,8 C 93 % 86 % 74 % 1013,2 hPa 0,0 l/m 0,0 km/h (0 Bft) SO 135 0 min 0,5 UV-I 8,6 C 12,5 C 0,0 km/h (0 Bft)
11.06.2013 07:30 9,9 C 21,4 C 12,1 C 12,5 C 12,5 C 2,6 C 93 % 86 % 68 % 1013,2 hPa 0,0 l/m 0,2 km/h (0 Bft) S 180 0 min 0,4 UV-I 8,8 C 12,5 C 1,8 km/h (1 Bft)
11.06.2013 07:35 10,0 C 21,4 C 12,1 C 13,1 C 13,1 C 3,1 C 93 % 86 % 82 % 1013,5 hPa 0,0 l/m 0,2 km/h (0 Bft) W-SW 247 0 min 0,4 UV-I 8,9 C 13,1 C 1,6 km/h (1 Bft)
11.06.2013 07:40 10,3 C 21,4 C 12,3 C 13,9 C 13,9 C 3,6 C 93 % 86 % 95 % 1013,5 hPa 0,0 l/m 0,2 km/h (0 Bft) SW 225 5 min 0,3 UV-I 9,2 C 13,9 C 0,0 km/h (0 Bft)
11.06.2013 07:45 10,5 C 21,4 C 12,3 C 14,6 C 14,6 C 4,1 C 93 % 86 % 100 % 1013,5 hPa 0,0 l/m 0,2 km/h (0 Bft) SW 225 5 min 0,3 UV-I 9,4 C 14,6 C 0,0 km/h (0 Bft)
11.06.2013 07:50 10,7 C 21,4 C 12,7 C 16,1 C 16,1 C 5,4 C 93 % 86 % 100 % 1013,5 hPa 0,0 l/m 0,2 km/h (0 Bft) SW 225 5 min 0,0 UV-I 9,6 C 16,1 C 0,0 km/h (0 Bft)
11.06.2013 07:55 10,8 C 21,3 C 12,7 C 16,1 C 16,1 C 5,3 C 93 % 85 % 100 % 1013,6 hPa 0,0 l/m 0,2 km/h (0 Bft) S-SO 157 5 min 0,0 UV-I 9,7 C 16,1 C 1,8 km/h (1 Bft)
11.06.2013 08:00 11,1 C 21,3 C 12,9 C 15,7 C 15,7 C 4,6 C 93 % 85 % 100 % 1013,6 hPa 0,0 l/m 0,6 km/h (0 Bft) W 270 5 min 0,0 UV-I 10,0 C 15,7 C 2,6 km/h (1 Bft)
11.06.2013 08:05 11,1 C 21,4 C 12,9 C 15,0 C 15,0 C 3,9 C 93 % 85 % 100 % 1013,6 hPa 0,0 l/m 0,8 km/h (0 Bft) S-SW 202 5 min 0,0 UV-I 10,0 C 15,0 C 0,0 km/h (0 Bft)
11.06.2013 08:10 11,2 C 21,3 C 12,9 C 14,4 C 14,4 C 3,2 C 93 % 85 % 84 % 1013,6 hPa 0,0 l/m 0,3 km/h (0 Bft) W 270 0 min 0,0 UV-I 10,1 C 14,4 C 0,0 km/h (0 Bft)
11.06.2013 08:15 11,2 C 21,2 C 13,0 C 14,3 C 14,3 C 3,1 C 93 % 85 % 82 % 1013,7 hPa 0,0 l/m 0,0 km/h (0 Bft) W-SW 247 0 min 0,0 UV-I 10,1 C 14,3 C 0,0 km/h (0 Bft)
11.06.2013 08:20 11,3 C 21,3 C 13,0 C 14,4 C 14,4 C 3,1 C 93 % 85 % 82 % 1013,7 hPa 0,0 l/m 0,0 km/h (0 Bft) W-SW 247 0 min 0,0 UV-I 10,2 C 14,4 C 0,0 km/h (0 Bft)
11.06.2013 08:25 11,5 C 21,2 C 13,1 C 14,5 C 14,5 C 3,0 C 93 % 85 % 79 % 1013,7 hPa 0,0 l/m 0,0 km/h (0 Bft) SW 225 0 min 0,0 UV-I 10,4 C 14,5 C 0,0 km/h (0 Bft)
11.06.2013 08:30 11,6 C 21,1 C 13,3 C 15,4 C 15,4 C 3,8 C 93 % 85 % 100 % 1013,7 hPa 0,0 l/m 0,0 km/h (0 Bft) SW 225 5 min 0,0 UV-I 10,5 C 15,4 C 0,0 km/h (0 Bft)
11.06.2013 08:35 11,9 C 21,1 C 13,5 C 17,3 C 17,3 C 5,4 C 93 % 85 % 100 % 1013,8 hPa 0,0 l/m 0,0 km/h (0 Bft) W 270 5 min 0,0 UV-I 10,8 C 17,3 C 0,0 km/h (0 Bft)
11.06.2013 08:40 12,1 C 21,1 C 13,6 C 20,1 C 20,1 C 8,0 C 93 % 85 % 100 % 1013,8 hPa 0,0 l/m 0,3 km/h (0 Bft) S 180 5 min 0,0 UV-I 11,0 C 20,1 C 1,6 km/h (1 Bft)
11.06.2013 08:45 12,3 C 21,1 C 13,7 C 19,9 C 19,9 C 7,6 C 93 % 85 % 100 % 1013,8 hPa 0,0 l/m 0,3 km/h (0 Bft) O 90 5 min 0,0 UV-I 11,2 C 19,9 C 0,0 km/h (0 Bft)
11.06.2013 08:50 12,6 C 21,1 C 13,9 C 18,9 C 18,9 C 6,3 C 93 % 84 % 100 % 1013,8 hPa 0,0 l/m 0,2 km/h (0 Bft) S-SW 202 5 min 0,0 UV-I 11,5 C 18,9 C 1,9 km/h (1 Bft)
11.06.2013 08:55 12,7 C 21,1 C 13,7 C 18,5 C 18,5 C 5,8 C 93 % 84 % 100 % 1014,8 hPa 0,0 l/m 0,2 km/h (0 Bft) S 180 5 min 0,0 UV-I 11,6 C 18,5 C 0,0 km/h (0 Bft)
11.06.2013 09:00 12,8 C 21,1 C 13,7 C 18,4 C 18,4 C 5,6 C 93 % 84 % 100 % 1014,8 hPa 0,0 l/m 0,3 km/h (0 Bft) W 270 5 min 0,0 UV-I 11,7 C 18,4 C 1,9 km/h (1 Bft)
11.06.2013 09:05 13,0 C 21,1 C 13,9 C 20,4 C 20,4 C 7,4 C 93 % 84 % 100 % 1014,8 hPa 0,0 l/m 0,2 km/h (0 Bft) SW 225 5 min 0,0 UV-I 11,9 C 20,4 C 1,8 km/h (1 Bft)
11.06.2013 09:10 13,4 C 21,0 C 13,9 C 22,5 C 22,5 C 9,1 C 93 % 84 % 100 % 1014,8 hPa 0,0 l/m 0,3 km/h (0 Bft) S 180 5 min 0,0 UV-I 12,3 C 22,5 C 3,5 km/h (1 Bft)
11.06.2013 09:15 14,0 C 21,0 C 14,0 C 23,4 C 23,4 C 9,4 C 93 % 84 % 100 % 1013,9 hPa 0,0 l/m 0,3 km/h (0 Bft) W-SW 247 5 min 0,0 UV-I 12,9 C 23,4 C 0,0 km/h (0 Bft)
11.06.2013 09:20 14,5 C 21,0 C 14,3 C 24,2 C 24,2 C 9,7 C 92 % 84 % 100 % 1013,9 hPa 0,0 l/m 0,5 km/h (0 Bft) SW 225 5 min 0,0 UV-I 13,2 C 24,2 C 2,3 km/h (1 Bft)
11.06.2013 09:25 14,7 C 21,0 C 14,3 C 24,5 C 24,5 C 9,8 C 92 % 84 % 100 % 1013,9 hPa 0,0 l/m 0,8 km/h (0 Bft) S 180 5 min 0,0 UV-I 13,4 C 24,5 C 0,0 km/h (0 Bft)
11.06.2013 09:30 15,2 C 21,0 C 14,4 C 25,0 C 25,0 C 9,8 C 90 % 84 % 100 % 1013,9 hPa 0,0 l/m 0,6 km/h (0 Bft) W-SW 247 5 min 0,1 UV-I 13,6 C 25,0 C 0,0 km/h (0 Bft)
11.06.2013 09:35 15,5 C 21,0 C 14,5 C 25,4 C 25,4 C 9,9 C 90 % 83 % 100 % 1014,4 hPa 0,0 l/m 0,3 km/h (0 Bft) SW 225 5 min 0,1 UV-I 13,9 C 25,4 C 0,0 km/h (0 Bft)
11.06.2013 09:40 15,6 C 21,0 C 14,5 C 25,6 C 25,6 C 10,0 C 87 % 83 % 100 % 1014,4 hPa 0,0 l/m 1,0 km/h (0 Bft) NO 45 5 min 0,1 UV-I 13,4 C 25,6 C 6,0 km/h (2 Bft)
11.06.2013 09:45 15,7 C 21,0 C 14,6 C 25,2 C 25,2 C 9,5 C 87 % 83 % 100 % 1014,4 hPa 0,0 l/m 1,1 km/h (1 Bft) O-NO 67 5 min 0,1 UV-I 13,5 C 25,2 C 0,0 km/h (0 Bft)
11.06.2013 09:50 15,9 C 21,0 C 14,7 C 25,4 C 25,4 C 9,5 C 85 % 83 % 100 % 1014,4 hPa 0,0 l/m 0,8 km/h (0 Bft) SW 225 5 min 0,0 UV-I 13,4 C 25,4 C 0,0 km/h (0 Bft)
11.06.2013 09:55 15,9 C 21,0 C 14,7 C 25,6 C 25,6 C 9,7 C 84 % 83 % 100 % 1014,2 hPa 0,0 l/m 0,8 km/h (0 Bft) SW 225 5 min 0,0 UV-I 13,2 C 25,6 C 2,3 km/h (1 Bft)
11.06.2013 10:00 16,0 C 21,0 C 14,7 C 25,2 C 25,2 C 9,2 C 83 % 83 % 100 % 1014,2 hPa 0,0 l/m 1,8 km/h (1 Bft) S 180 5 min 0,0 UV-I 13,1 C 25,2 C 6,9 km/h (2 Bft)
11.06.2013 10:05 16,0 C 21,0 C 14,8 C 25,0 C 25,0 C 9,0 C 82 % 83 % 100 % 1014,2 hPa 0,0 l/m 2,4 km/h (1 Bft) W 270 5 min 0,0 UV-I 12,9 C 25,0 C 2,9 km/h (1 Bft)
11.06.2013 10:10 16,1 C 21,0 C 14,9 C 25,2 C 25,2 C 9,1 C 81 % 83 % 100 % 1014,2 hPa 0,0 l/m 1,9 km/h (1 Bft) S 180 5 min 0,0 UV-I 12,8 C 25,2 C 2,7 km/h (1 Bft)
11.06.2013 10:15 16,2 C 21,0 C 15,0 C 25,2 C 25,2 C 9,0 C 81 % 83 % 100 % 1014,7 hPa 0,0 l/m 1,9 km/h (1 Bft) W 270 5 min 0,0 UV-I 12,9 C 25,2 C 2,1 km/h (1 Bft)
11.06.2013 10:20 16,4 C 20,9 C 15,1 C 25,1 C 25,1 C 8,7 C 80 % 83 % 100 % 1014,7 hPa 0,0 l/m 2,3 km/h (1 Bft) W 270 5 min 0,0 UV-I 12,9 C 25,1 C 4,3 km/h (1 Bft)
11.06.2013 10:25 16,4 C 20,9 C 15,2 C 25,0 C 25,0 C 8,6 C 80 % 83 % 100 % 1014,7 hPa 0,0 l/m 1,9 km/h (1 Bft) O 90 5 min 0,0 UV-I 12,9 C 25,0 C 0,0 km/h (0 Bft)
11.06.2013 10:30 16,7 C 20,9 C 15,2 C 25,5 C 25,5 C 8,8 C 79 % 82 % 100 % 1014,7 hPa 0,0 l/m 1,1 km/h (1 Bft) W-SW 247 5 min 0,0 UV-I 13,0 C 25,5 C 2,3 km/h (1 Bft)
11.06.2013 10:35 16,8 C 20,9 C 15,3 C 25,9 C 25,9 C 9,1 C 80 % 82 % 100 % 1014,4 hPa 0,0 l/m 0,5 km/h (0 Bft) SW 225 5 min 0,0 UV-I 13,3 C 25,9 C 1,8 km/h (1 Bft)
11.06.2013 10:40 17,3 C 21,0 C 15,5 C 26,1 C 26,1 C 8,8 C 80 % 82 % 100 % 1014,4 hPa 0,0 l/m 1,3 km/h (1 Bft) SW 225 5 min 0,1 UV-I 13,8 C 26,1 C 2,4 km/h (1 Bft)
11.06.2013 10:45 17,5 C 21,0 C 15,5 C 26,1 C 26,1 C 8,6 C 78 % 82 % 100 % 1014,4 hPa 0,0 l/m 1,8 km/h (1 Bft) W-SW 247 5 min 0,1 UV-I 13,6 C 26,1 C 8,5 km/h (2 Bft)
11.06.2013 10:50 17,6 C 20,9 C 15,6 C 25,6 C 25,6 C 8,0 C 76 % 82 % 100 % 1014,4 hPa 0,0 l/m 2,9 km/h (1 Bft) W 270 5 min 0,2 UV-I 13,3 C 25,6 C 4,8 km/h (1 Bft)
11.06.2013 10:55 17,7 C 21,0 C 15,7 C 25,5 C 25,5 C 7,8 C 76 % 82 % 100 % 1014,6 hPa 0,0 l/m 2,7 km/h (1 Bft) NW 315 5 min 0,2 UV-I 13,4 C 25,5 C 2,9 km/h (1 Bft)
11.06.2013 11:00 18,0 C 21,0 C 16,0 C 26,1 C 26,1 C 8,1 C 75 % 81 % 100 % 1014,6 hPa 0,0 l/m 1,6 km/h (1 Bft) NO 45 5 min 0,2 UV-I 13,5 C 26,1 C 2,6 km/h (1 Bft)
11.06.2013 11:05 18,1 C 21,0 C 16,3 C 26,4 C 26,4 C 8,3 C 75 % 81 % 100 % 1014,6 hPa 0,0 l/m 1,1 km/h (1 Bft) O 90 5 min 0,2 UV-I 13,6 C 26,4 C 0,0 km/h (0 Bft)
11.06.2013 11:10 18,7 C 21,0 C 16,4 C 27,1 C 27,1 C 8,4 C 75 % 82 % 100 % 1014,6 hPa 0,0 l/m 1,1 km/h (1 Bft) SO 135 5 min 0,2 UV-I 14,2 C 27,1 C 3,5 km/h (1 Bft)
11.06.2013 11:15 18,9 C 21,0 C 16,4 C 25,4 C 25,4 C 6,5 C 75 % 81 % 100 % 1014,7 hPa 0,0 l/m 1,1 km/h (1 Bft) O-SO 112 5 min 0,2 UV-I 14,4 C 25,4 C 0,0 km/h (0 Bft)
11.06.2013 11:20 18,9 C 21,0 C 16,5 C 23,1 C 23,1 C 4,2 C 74 % 81 % 100 % 1014,7 hPa 0,0 l/m 1,3 km/h (1 Bft) NW 315 5 min 0,0 UV-I 14,2 C 23,1 C 2,9 km/h (1 Bft)
11.06.2013 11:25 18,7 C 21,0 C 16,4 C 21,8 C 21,8 C 3,1 C 73 % 81 % 82 % 1014,7 hPa 0,0 l/m 1,6 km/h (1 Bft) S 180 0 min 0,0 UV-I 13,8 C 21,8 C 2,4 km/h (1 Bft)
11.06.2013 11:30 18,7 C 21,0 C 16,7 C 23,5 C 23,5 C 4,8 C 72 % 81 % 100 % 1014,7 hPa 0,0 l/m 2,6 km/h (1 Bft) W-SW 247 5 min 0,0 UV-I 13,5 C 23,5 C 2,7 km/h (1 Bft)
11.06.2013 11:35 18,7 C 21,0 C 16,8 C 24,9 C 24,9 C 6,2 C 71 % 81 % 100 % 1014,6 hPa 0,0 l/m 1,8 km/h (1 Bft) W-SW 247 5 min 0,0 UV-I 13,3 C 24,9 C 0,0 km/h (0 Bft)
11.06.2013 11:40 18,9 C 21,0 C 17,0 C 25,4 C 25,4 C 6,5 C 72 % 80 % 100 % 1014,6 hPa 0,0 l/m 1,4 km/h (1 Bft) W-SW 247 5 min 0,0 UV-I 13,7 C 25,4 C 4,5 km/h (1 Bft)
11.06.2013 11:45 19,1 C 21,0 C 17,1 C 25,8 C 25,8 C 6,7 C 70 % 80 % 100 % 1014,6 hPa 0,0 l/m 1,0 km/h (0 Bft) S 180 5 min 0,0 UV-I 13,5 C 25,8 C 0,0 km/h (0 Bft)
11.06.2013 11:50 19,2 C 21,1 C 17,2 C 26,7 C 26,7 C 7,5 C 69 % 80 % 100 % 1014,6 hPa 0,0 l/m 1,8 km/h (1 Bft) W-SW 247 5 min 0,1 UV-I 13,4 C 26,7 C 3,5 km/h (1 Bft)
11.06.2013 11:55 19,2 C 21,0 C 17,4 C 26,6 C 26,6 C 7,4 C 67 % 80 % 100 % 1015,2 hPa 0,0 l/m 3,1 km/h (1 Bft) W-SW 247 5 min 0,1 UV-I 12,9 C 26,6 C 6,3 km/h (2 Bft)
11.06.2013 12:00 19,2 C 21,0 C 17,3 C 26,6 C 26,6 C 7,4 C 67 % 77 % 100 % 1015,2 hPa 0,0 l/m 2,9 km/h (1 Bft) N 360 5 min 0,1 UV-I 12,9 C 26,6 C 0,0 km/h (0 Bft)
11.06.2013 12:05 19,2 C 21,0 C 17,2 C 25,9 C 25,9 C 6,7 C 67 % 75 % 100 % 1015,2 hPa 0,0 l/m 2,1 km/h (1 Bft) SO 135 5 min 0,1 UV-I 12,9 C 25,9 C 0,0 km/h (0 Bft)
11.06.2013 12:10 19,5 C 21,0 C 17,7 C 25,7 C 25,7 C 6,2 C 67 % 76 % 100 % 1015,2 hPa 0,0 l/m 0,5 km/h (0 Bft) NO 45 5 min 0,1 UV-I 13,2 C 25,7 C 0,0 km/h (0 Bft)
11.06.2013 12:15 19,7 C 21,0 C 17,7 C 25,9 C 25,9 C 6,2 C 68 % 76 % 100 % 1015,1 hPa 0,0 l/m 1,0 km/h (0 Bft) O 90 5 min 0,1 UV-I 13,6 C 25,9 C 1,9 km/h (1 Bft)
11.06.2013 12:20 19,9 C 21,0 C 17,5 C 24,1 C 24,1 C 4,2 C 67 % 76 % 100 % 1015,1 hPa 0,0 l/m 1,3 km/h (1 Bft) O-SO 112 5 min 0,0 UV-I 13,6 C 24,1 C 0,0 km/h (0 Bft)
11.06.2013 12:25 19,9 C 21,0 C 17,4 C 23,1 C 23,1 C 3,2 C 65 % 77 % 84 % 1015,1 hPa 0,0 l/m 1,3 km/h (1 Bft) W 270 0 min 0,0 UV-I 13,1 C 23,1 C 1,8 km/h (1 Bft)
11.06.2013 12:30 19,8 C 21,1 C 17,3 C 22,6 C 22,6 C 2,8 C 64 % 77 % 74 % 1015,1 hPa 0,0 l/m 1,0 km/h (0 Bft) S-SO 157 0 min 0,0 UV-I 12,8 C 22,6 C 2,4 km/h (1 Bft)
11.06.2013 12:35 20,1 C 21,0 C 18,0 C 23,9 C 23,9 C 3,8 C 63 % 74 % 100 % 1014,9 hPa 0,0 l/m 1,3 km/h (1 Bft) N 360 5 min 0,0 UV-I 12,8 C 23,9 C 2,4 km/h (1 Bft)
11.06.2013 12:41 20,3 C 21,1 C 18,3 C 25,1 C 25,1 C 4,8 C 60 % 73 % 100 % 1014,9 hPa 0,0 l/m 1,4 km/h (1 Bft) N 0 6 min 0,1 UV-I 12,3 C 25,1 C 0,0 km/h (0 Bft)
11.06.2013 13:00 20,8 C 21,1 C 18,8 C 25,0 C 25,0 C 4,2 C 58 % 74 % 100 % 1014,8 hPa 0,0 l/m 3,1 km/h (1 Bft) SW 225 19 min 0,1 UV-I 12,2 C 25,0 C 3,9 km/h (1 Bft)
11.06.2013 13:05 20,9 C 21,1 C 19,1 C 25,9 C 25,9 C 5,0 C 58 % 72 % 100 % 1014,8 hPa 0,0 l/m 2,6 km/h (1 Bft) W-SW 247 5 min 0,1 UV-I 12,3 C 25,9 C 0,0 km/h (0 Bft)
11.06.2013 13:10 21,0 C 21,1 C 18,7 C 25,0 C 25,0 C 4,0 C 59 % 72 % 100 % 1014,8 hPa 0,0 l/m 1,3 km/h (1 Bft) S-SW 202 5 min 0,0 UV-I 12,7 C 25,0 C 2,3 km/h (1 Bft)
11.06.2013 13:15 20,9 C 21,1 C 18,8 C 24,9 C 24,9 C 4,0 C 59 % 73 % 100 % 1014,7 hPa 0,0 l/m 1,9 km/h (1 Bft) SW 225 5 min 0,0 UV-I 12,6 C 24,9 C 5,3 km/h (1 Bft)
11.06.2013 13:20 21,0 C 21,2 C 18,8 C 25,0 C 25,0 C 4,0 C 54 % 72 % 100 % 1014,7 hPa 0,0 l/m 2,9 km/h (1 Bft) W-NW 292 5 min 0,0 UV-I 11,3 C 25,0 C 2,7 km/h (1 Bft)
11.06.2013 13:25 20,9 C 21,2 C 18,8 C 24,5 C 24,5 C 3,6 C 55 % 70 % 95 % 1014,7 hPa 0,0 l/m 2,1 km/h (1 Bft) S-SO 157 5 min 0,0 UV-I 11,5 C 24,5 C 0,0 km/h (0 Bft)
11.06.2013 13:30 21,0 C 21,2 C 18,8 C 25,0 C 25,0 C 4,0 C 57 % 70 % 100 % 1014,7 hPa 0,0 l/m 1,6 km/h (1 Bft) S-SW 202 5 min 0,0 UV-I 12,1 C 25,0 C 2,4 km/h (1 Bft)
11.06.2013 13:35 20,9 C 21,2 C 19,1 C 24,6 C 24,6 C 3,7 C 58 % 71 % 97 % 1014,8 hPa 0,0 l/m 1,1 km/h (1 Bft) W-NW 292 5 min 0,0 UV-I 12,3 C 24,6 C 0,0 km/h (0 Bft)
11.06.2013 13:40 21,6 C 21,2 C 19,2 C 25,8 C 25,8 C 4,2 C 57 % 71 % 100 % 1014,8 hPa 0,0 l/m 1,8 km/h (1 Bft) S 180 5 min 0,1 UV-I 12,7 C 25,8 C 2,1 km/h (1 Bft)
11.06.2013 13:45 21,9 C 21,2 C 19,5 C 26,5 C 26,5 C 4,6 C 54 % 68 % 100 % 1014,8 hPa 0,0 l/m 1,9 km/h (1 Bft) W 270 5 min 0,1 UV-I 12,2 C 26,5 C 4,2 km/h (1 Bft)
11.06.2013 13:50 21,9 C 21,3 C 19,5 C 26,1 C 26,1 C 4,2 C 55 % 71 % 100 % 1014,8 hPa 0,0 l/m 1,1 km/h (1 Bft) SW 225 5 min 0,0 UV-I 12,4 C 26,1 C 2,7 km/h (1 Bft)
11.06.2013 13:55 22,0 C 21,3 C 19,5 C 26,1 C 26,1 C 4,1 C 55 % 69 % 100 % 1014,8 hPa 0,0 l/m 1,1 km/h (1 Bft) O-NO 67 5 min 0,0 UV-I 12,5 C 26,1 C 0,0 km/h (0 Bft)
11.06.2013 14:00 21,9 C 21,3 C 19,9 C 26,3 C 26,3 C 4,4 C 54 % 64 % 100 % 1014,8 hPa 0,0 l/m 1,9 km/h (1 Bft) NO 45 5 min 0,1 UV-I 12,2 C 26,3 C 2,1 km/h (1 Bft)
11.06.2013 14:05 21,8 C 21,3 C 19,5 C 26,0 C 26,0 C 4,2 C 55 % 65 % 100 % 1014,8 hPa 0,0 l/m 1,9 km/h (1 Bft) N-NW 337 5 min 0,1 UV-I 12,4 C 26,0 C 0,0 km/h (0 Bft)
11.06.2013 14:10 21,5 C 21,3 C 19,0 C 24,3 C 24,3 C 2,8 C 54 % 67 % 74 % 1014,8 hPa 0,0 l/m 0,8 km/h (0 Bft) S 180 0 min 0,0 UV-I 11,8 C 24,3 C 2,6 km/h (1 Bft)
11.06.2013 14:15 21,2 C 21,3 C 19,3 C 23,9 C 23,9 C 2,7 C 53 % 66 % 71 % 1014,9 hPa 0,0 l/m 0,8 km/h (0 Bft) SW 225 0 min 0,0 UV-I 11,2 C 23,9 C 2,6 km/h (1 Bft)
11.06.2013 14:20 21,3 C 21,3 C 19,4 C 24,9 C 24,9 C 3,6 C 52 % 66 % 95 % 1014,9 hPa 0,0 l/m 2,1 km/h (1 Bft) S 180 5 min 0,0 UV-I 11,0 C 24,9 C 9,5 km/h (2 Bft)
11.06.2013 14:25 21,6 C 21,3 C 19,6 C 25,8 C 25,8 C 4,2 C 53 % 66 % 100 % 1014,9 hPa 0,0 l/m 1,9 km/h (1 Bft) O 90 5 min 0,0 UV-I 11,6 C 25,8 C 0,0 km/h (0 Bft)
11.06.2013 14:30 22,0 C 21,4 C 19,9 C 27,2 C 27,2 C 5,2 C 49 % 65 % 100 % 1014,9 hPa 0,0 l/m 2,4 km/h (1 Bft) NW 315 5 min 0,1 UV-I 10,8 C 27,2 C 2,1 km/h (1 Bft)
11.06.2013 14:35 22,0 C 21,4 C 20,0 C 27,4 C 27,4 C 5,4 C 50 % 66 % 100 % 1014,6 hPa 0,0 l/m 2,1 km/h (1 Bft) SW 225 5 min 0,1 UV-I 11,1 C 27,4 C 2,3 km/h (1 Bft)
11.06.2013 14:40 21,8 C 21,4 C 19,9 C 26,6 C 26,6 C 4,8 C 52 % 65 % 100 % 1014,6 hPa 0,0 l/m 1,8 km/h (1 Bft) N-NW 337 5 min 0,0 UV-I 11,5 C 26,6 C 6,1 km/h (2 Bft)
11.06.2013 14:45 21,8 C 21,4 C 19,7 C 26,1 C 26,1 C 4,3 C 51 % 62 % 100 % 1014,6 hPa 0,0 l/m 1,6 km/h (1 Bft) NW 315 5 min 0,0 UV-I 11,2 C 26,1 C 3,1 km/h (1 Bft)
11.06.2013 14:50 21,9 C 21,4 C 20,1 C 26,5 C 26,5 C 4,6 C 50 % 64 % 100 % 1014,6 hPa 0,0 l/m 3,1 km/h (1 Bft) W 270 5 min 0,0 UV-I 11,0 C 26,5 C 7,4 km/h (2 Bft)
11.06.2013 14:55 22,2 C 21,4 C 20,1 C 26,7 C 26,7 C 4,5 C 52 % 67 % 100 % 1014,7 hPa 0,0 l/m 3,5 km/h (1 Bft) S-SW 202 5 min 0,0 UV-I 11,9 C 26,7 C 6,1 km/h (2 Bft)
11.06.2013 15:00 22,5 C 21,4 C 20,4 C 27,4 C 27,4 C 4,9 C 50 % 62 % 100 % 1014,7 hPa 0,0 l/m 3,5 km/h (1 Bft) SO 135 5 min 0,1 UV-I 11,5 C 27,4 C 2,4 km/h (1 Bft)
11.06.2013 15:05 22,8 C 21,4 C 20,5 C 28,2 C 28,2 C 5,4 C 51 % 64 % 100 % 1014,7 hPa 0,0 l/m 2,4 km/h (1 Bft) SW 225 5 min 0,1 UV-I 12,1 C 28,2 C 3,1 km/h (1 Bft)
11.06.2013 15:10 23,1 C 21,4 C 20,6 C 28,9 C 28,9 C 5,8 C 46 % 60 % 100 % 1014,7 hPa 0,0 l/m 2,3 km/h (1 Bft) O-NO 67 5 min 0,1 UV-I 10,8 C 28,9 C 1,8 km/h (1 Bft)
11.06.2013 15:15 22,9 C 21,4 C 20,8 C 29,1 C 29,1 C 6,2 C 51 % 60 % 100 % 1014,6 hPa 0,0 l/m 3,1 km/h (1 Bft) O 90 5 min 0,1 UV-I 12,2 C 29,1 C 3,4 km/h (1 Bft)
11.06.2013 15:20 22,2 C 21,4 C 20,7 C 28,7 C 28,7 C 6,5 C 52 % 57 % 100 % 1014,6 hPa 0,0 l/m 2,4 km/h (1 Bft) O-SO 112 5 min 0,1 UV-I 11,9 C 28,7 C 2,4 km/h (1 Bft)
11.06.2013 15:25 21,6 C 21,5 C 20,2 C 27,0 C 27,0 C 5,4 C 51 % 59 % 100 % 1014,6 hPa 0,0 l/m 3,5 km/h (1 Bft) O 90 5 min 0,1 UV-I 11,0 C 27,0 C 6,3 km/h (2 Bft)
11.06.2013 15:30 20,8 C 21,5 C 19,7 C 24,3 C 24,3 C 3,5 C 54 % 60 % 92 % 1014,6 hPa 0,0 l/m 4,2 km/h (1 Bft) O-NO 67 5 min 0,0 UV-I 11,1 C 24,3 C 3,9 km/h (1 Bft)
11.06.2013 15:35 20,4 C 21,5 C 19,7 C 23,3 C 23,3 C 2,9 C 55 % 63 % 76 % 1014,8 hPa 0,0 l/m 4,2 km/h (1 Bft) O-NO 67 0 min 0,0 UV-I 11,1 C 23,3 C 4,8 km/h (1 Bft)
11.06.2013 15:40 20,2 C 21,5 C 19,6 C 22,6 C 22,6 C 2,4 C 55 % 63 % 63 % 1014,8 hPa 0,0 l/m 5,0 km/h (1 Bft) O-NO 67 0 min 0,0 UV-I 10,9 C 22,6 C 6,9 km/h (2 Bft)
11.06.2013 15:45 20,2 C 21,5 C 19,6 C 22,6 C 22,6 C 2,4 C 58 % 64 % 63 % 1014,8 hPa 0,0 l/m 4,7 km/h (1 Bft) O-SO 112 0 min 0,0 UV-I 11,7 C 22,6 C 2,3 km/h (1 Bft)
11.06.2013 15:50 20,3 C 21,5 C 19,7 C 22,9 C 22,9 C 2,6 C 56 % 62 % 68 % 1014,8 hPa 0,0 l/m 3,4 km/h (1 Bft) O-NO 67 0 min 0,0 UV-I 11,2 C 22,9 C 5,1 km/h (1 Bft)
11.06.2013 15:55 20,1 C 21,6 C 19,6 C 22,8 C 22,8 C 2,7 C 58 % 64 % 71 % 1014,6 hPa 0,0 l/m 3,2 km/h (1 Bft) O-NO 67 0 min 0,0 UV-I 11,6 C 22,8 C 2,7 km/h (1 Bft)
11.06.2013 16:00 20,4 C 21,6 C 19,8 C 23,9 C 23,9 C 3,5 C 58 % 63 % 92 % 1014,6 hPa 0,0 l/m 3,1 km/h (1 Bft) N-NW 337 5 min 0,0 UV-I 11,9 C 23,9 C 3,9 km/h (1 Bft)
11.06.2013 16:05 20,7 C 21,6 C 20,0 C 24,4 C 24,4 C 3,7 C 59 % 64 % 97 % 1014,6 hPa 0,0 l/m 2,4 km/h (1 Bft) O-NO 67 5 min 0,0 UV-I 12,4 C 24,4 C 2,6 km/h (1 Bft)
11.06.2013 16:10 21,0 C 21,6 C 20,1 C 25,5 C 25,5 C 4,5 C 57 % 65 % 100 % 1014,6 hPa 0,0 l/m 2,3 km/h (1 Bft) NW 315 5 min 0,0 UV-I 12,1 C 25,5 C 2,4 km/h (1 Bft)
11.06.2013 16:15 21,1 C 21,7 C 20,1 C 25,5 C 25,5 C 4,4 C 55 % 63 % 100 % 1014,6 hPa 0,0 l/m 2,6 km/h (1 Bft) N-NO 22 5 min 0,0 UV-I 11,7 C 25,5 C 4,8 km/h (1 Bft)
11.06.2013 16:20 21,0 C 21,7 C 20,3 C 26,0 C 26,0 C 5,0 C 57 % 63 % 100 % 1014,6 hPa 0,0 l/m 2,1 km/h (1 Bft) N-NO 22 5 min 0,0 UV-I 12,1 C 26,0 C 1,9 km/h (1 Bft)
11.06.2013 16:25 21,1 C 21,7 C 20,1 C 26,2 C 26,2 C 5,1 C 57 % 64 % 100 % 1014,6 hPa 0,0 l/m 1,3 km/h (1 Bft) N 360 5 min 0,0 UV-I 12,2 C 26,2 C 5,3 km/h (1 Bft)
11.06.2013 16:30 21,2 C 21,7 C 20,3 C 26,7 C 26,7 C 5,5 C 57 % 64 % 100 % 1014,6 hPa 0,0 l/m 1,6 km/h (1 Bft) SO 135 5 min 0,0 UV-I 12,3 C 26,7 C 0,0 km/h (0 Bft)
11.06.2013 16:35 21,4 C 21,7 C 20,5 C 27,2 C 27,2 C 5,8 C 56 % 63 % 100 % 1014,8 hPa 0,0 l/m 1,9 km/h (1 Bft) W-NW 292 5 min 0,0 UV-I 12,3 C 27,2 C 0,0 km/h (0 Bft)
11.06.2013 16:40 21,3 C 21,7 C 20,1 C 26,3 C 26,3 C 5,0 C 56 % 63 % 100 % 1014,8 hPa 0,0 l/m 1,4 km/h (1 Bft) O-NO 67 5 min 0,0 UV-I 12,2 C 26,3 C 0,0 km/h (0 Bft)
11.06.2013 16:45 21,2 C 21,7 C 19,9 C 25,6 C 25,6 C 4,4 C 57 % 64 % 100 % 1014,8 hPa 0,0 l/m 1,1 km/h (1 Bft) SO 135 5 min 0,0 UV-I 12,3 C 25,6 C 3,2 km/h (1 Bft)
11.06.2013 16:50 21,4 C 21,8 C 20,3 C 27,0 C 27,0 C 5,6 C 53 % 61 % 100 % 1014,8 hPa 0,0 l/m 1,0 km/h (0 Bft) NW 315 5 min 0,0 UV-I 11,4 C 27,0 C 3,9 km/h (1 Bft)
11.06.2013 16:55 21,5 C 21,8 C 20,1 C 27,6 C 27,6 C 6,1 C 54 % 63 % 100 % 1014,7 hPa 0,0 l/m 1,3 km/h (1 Bft) NW 315 5 min 0,0 UV-I 11,8 C 27,6 C 1,9 km/h (1 Bft)
11.06.2013 17:00 21,5 C 21,8 C 20,0 C 27,9 C 27,9 C 6,4 C 52 % 58 % 100 % 1014,7 hPa 0,0 l/m 1,6 km/h (1 Bft) O-NO 67 5 min 0,0 UV-I 11,2 C 27,9 C 3,7 km/h (1 Bft)
11.06.2013 17:05 21,1 C 21,8 C 19,7 C 26,0 C 26,0 C 4,9 C 52 % 61 % 100 % 1014,7 hPa 0,0 l/m 1,8 km/h (1 Bft) SO 135 5 min 0,0 UV-I 10,9 C 26,0 C 0,0 km/h (0 Bft)
11.06.2013 17:10 20,9 C 21,8 C 19,8 C 25,8 C 25,8 C 4,9 C 56 % 62 % 100 % 1014,7 hPa 0,0 l/m 1,8 km/h (1 Bft) O-NO 67 5 min 0,0 UV-I 11,8 C 25,8 C 1,8 km/h (1 Bft)
11.06.2013 17:15 21,3 C 21,8 C 20,1 C 26,6 C 26,6 C 5,3 C 54 % 62 % 100 % 1014,8 hPa 0,0 l/m 1,1 km/h (1 Bft) O 90 5 min 0,0 UV-I 11,6 C 26,6 C 2,3 km/h (1 Bft)
11.06.2013 17:20 21,5 C 21,8 C 20,3 C 27,4 C 27,4 C 5,9 C 53 % 57 % 100 % 1014,8 hPa 0,0 l/m 1,6 km/h (1 Bft) O-SO 112 5 min 0,0 UV-I 11,5 C 27,4 C 3,5 km/h (1 Bft)
11.06.2013 17:25 21,3 C 21,8 C 20,2 C 27,6 C 27,6 C 6,3 C 52 % 58 % 100 % 1014,8 hPa 0,0 l/m 2,1 km/h (1 Bft) N-NW 337 5 min 0,0 UV-I 11,0 C 27,6 C 2,6 km/h (1 Bft)
11.06.2013 17:30 21,3 C 21,9 C 19,9 C 26,3 C 26,3 C 5,0 C 53 % 60 % 100 % 1014,8 hPa 0,0 l/m 1,4 km/h (1 Bft) NW 315 5 min 0,0 UV-I 11,3 C 26,3 C 0,0 km/h (0 Bft)
11.06.2013 17:35 21,2 C 21,9 C 19,7 C 25,5 C 25,5 C 4,3 C 54 % 60 % 100 % 1014,9 hPa 0,0 l/m 1,0 km/h (0 Bft) O-NO 67 5 min 0,0 UV-I 11,5 C 25,5 C 0,0 km/h (0 Bft)
11.06.2013 17:40 21,2 C 21,9 C 20,0 C 25,9 C 25,9 C 4,7 C 53 % 63 % 100 % 1014,9 hPa 0,0 l/m 0,3 km/h (0 Bft) NW 315 5 min 0,0 UV-I 11,2 C 25,9 C 1,8 km/h (1 Bft)
11.06.2013 17:45 21,5 C 21,9 C 20,0 C 27,0 C 27,0 C 5,5 C 52 % 61 % 100 % 1014,9 hPa 0,0 l/m 0,5 km/h (0 Bft) S-SO 157 5 min 0,0 UV-I 11,2 C 27,0 C 0,0 km/h (0 Bft)
11.06.2013 17:50 21,5 C 21,9 C 20,0 C 27,2 C 27,2 C 5,7 C 53 % 58 % 100 % 1014,9 hPa 0,0 l/m 1,1 km/h (1 Bft) NW 315 5 min 0,0 UV-I 11,5 C 27,2 C 1,6 km/h (1 Bft)
11.06.2013 17:55 21,6 C 21,9 C 20,1 C 27,5 C 27,5 C 5,9 C 52 % 61 % 100 % 1014,8 hPa 0,0 l/m 1,4 km/h (1 Bft) N-NW 337 5 min 0,0 UV-I 11,3 C 27,5 C 5,6 km/h (1 Bft)
11.06.2013 18:00 21,6 C 21,9 C 20,0 C 27,5 C 27,5 C 5,9 C 52 % 63 % 100 % 1014,8 hPa 0,0 l/m 1,3 km/h (1 Bft) N-NW 337 5 min 0,0 UV-I 11,3 C 27,5 C 2,3 km/h (1 Bft)
11.06.2013 18:05 21,5 C 21,9 C 19,7 C 26,0 C 26,0 C 4,5 C 51 % 60 % 100 % 1014,8 hPa 0,0 l/m 1,9 km/h (1 Bft) N 360 5 min 0,0 UV-I 10,9 C 26,0 C 3,7 km/h (1 Bft)
11.06.2013 18:10 21,3 C 21,9 C 19,8 C 24,5 C 24,5 C 3,2 C 53 % 61 % 84 % 1014,8 hPa 0,0 l/m 1,0 km/h (0 Bft) O-SO 112 0 min 0,0 UV-I 11,3 C 24,5 C 0,0 km/h (0 Bft)
11.06.2013 18:15 21,3 C 21,9 C 19,7 C 24,8 C 24,8 C 3,5 C 53 % 62 % 92 % 1014,8 hPa 0,0 l/m 0,5 km/h (0 Bft) N-NO 22 5 min 0,0 UV-I 11,3 C 24,8 C 1,6 km/h (1 Bft)
11.06.2013 18:20 21,3 C 21,9 C 19,5 C 24,1 C 24,1 C 2,8 C 55 % 64 % 74 % 1014,8 hPa 0,0 l/m 0,2 km/h (0 Bft) NW 315 0 min 0,0 UV-I 11,9 C 24,1 C 1,9 km/h (1 Bft)
11.06.2013 18:25 21,1 C 22,0 C 19,4 C 23,5 C 23,5 C 2,4 C 56 % 64 % 63 % 1014,8 hPa 0,0 l/m 0,3 km/h (0 Bft) N 360 0 min 0,0 UV-I 12,0 C 23,5 C 0,0 km/h (0 Bft)
11.06.2013 18:30 21,0 C 22,0 C 19,6 C 24,3 C 24,3 C 3,3 C 57 % 65 % 87 % 1014,8 hPa 0,0 l/m 0,3 km/h (0 Bft) NO 45 5 min 0,0 UV-I 12,1 C 24,3 C 2,3 km/h (1 Bft)
11.06.2013 18:35 21,1 C 22,0 C 19,9 C 25,2 C 25,2 C 4,1 C 55 % 63 % 100 % 1014,8 hPa 0,0 l/m 0,3 km/h (0 Bft) SO 135 5 min 0,0 UV-I 11,7 C 25,2 C 0,0 km/h (0 Bft)
11.06.2013 18:41 21,1 C 22,0 C 20,0 C 26,6 C 26,6 C 5,5 C 55 % 63 % 100 % 1014,8 hPa 0,0 l/m 0,3 km/h (0 Bft) N 0 6 min 0,0 UV-I 11,7 C 26,6 C 0,0 km/h (0 Bft)
11.06.2013 19:00 21,5 C 22,0 C 19,8 C 26,9 C 26,9 C 5,4 C 54 % 61 % 100 % 1014,9 hPa 0,0 l/m 0,0 km/h (0 Bft) O-SO 112 19 min 0,0 UV-I 11,8 C 26,9 C 0,0 km/h (0 Bft)
11.06.2013 19:05 21,3 C 22,0 C 19,7 C 26,7 C 26,7 C 5,4 C 55 % 64 % 100 % 1014,9 hPa 0,0 l/m 0,0 km/h (0 Bft) NO 45 5 min 0,0 UV-I 11,9 C 26,7 C 0,0 km/h (0 Bft)
11.06.2013 19:10 21,3 C 22,0 C 19,6 C 26,9 C 26,9 C 5,6 C 56 % 66 % 100 % 1014,9 hPa 0,0 l/m 0,0 km/h (0 Bft) NW 315 5 min 0,0 UV-I 12,2 C 26,9 C 0,0 km/h (0 Bft)
11.06.2013 19:15 21,5 C 22,0 C 19,5 C 26,8 C 26,8 C 5,3 C 56 % 66 % 100 % 1014,9 hPa 0,0 l/m 0,0 km/h (0 Bft) W-NW 292 5 min 0,0 UV-I 12,3 C 26,8 C 0,0 km/h (0 Bft)
11.06.2013 19:20 21,7 C 22,0 C 19,5 C 26,5 C 26,5 C 4,8 C 55 % 68 % 100 % 1014,9 hPa 0,0 l/m 0,5 km/h (0 Bft) S-SW 202 5 min 0,0 UV-I 12,3 C 26,5 C 3,9 km/h (1 Bft)
11.06.2013 19:25 21,6 C 22,0 C 19,3 C 25,8 C 25,8 C 4,2 C 55 % 69 % 100 % 1014,9 hPa 0,0 l/m 1,0 km/h (0 Bft) S 180 5 min 0,0 UV-I 12,2 C 25,8 C 0,0 km/h (0 Bft)
11.06.2013 19:30 21,8 C 22,0 C 19,3 C 25,2 C 25,2 C 3,4 C 55 % 71 % 89 % 1014,9 hPa 0,0 l/m 1,1 km/h (1 Bft) W-SW 247 5 min 0,0 UV-I 12,4 C 25,2 C 0,0 km/h (0 Bft)
11.06.2013 19:35 22,3 C 22,0 C 19,3 C 25,0 C 25,0 C 2,7 C 54 % 70 % 71 % 1015,0 hPa 0,0 l/m 0,8 km/h (0 Bft) O 90 5 min 0,0 UV-I 12,5 C 25,0 C 0,0 km/h (0 Bft)
11.06.2013 19:40 22,5 C 22,0 C 19,2 C 24,4 C 24,4 C 1,9 C 53 % 70 % 50 % 1015,0 hPa 0,0 l/m 1,3 km/h (1 Bft) W-SW 247 0 min 0,0 UV-I 12,4 C 24,4 C 1,8 km/h (1 Bft)
11.06.2013 19:45 22,4 C 22,0 C 19,1 C 23,8 C 23,8 C 1,4 C 53 % 70 % 37 % 1015,0 hPa 0,0 l/m 1,3 km/h (1 Bft) W-SW 247 0 min 0,0 UV-I 12,3 C 23,8 C 1,8 km/h (1 Bft)
11.06.2013 19:50 22,3 C 22,0 C 18,8 C 23,3 C 23,3 C 1,0 C 54 % 71 % 26 % 1015,0 hPa 0,0 l/m 0,8 km/h (0 Bft) W 270 0 min 0,0 UV-I 12,5 C 23,3 C 0,0 km/h (0 Bft)
11.06.2013 19:55 21,8 C 22,1 C 18,8 C 23,2 C 23,2 C 1,4 C 55 % 72 % 37 % 1015,1 hPa 0,0 l/m 0,3 km/h (0 Bft) O 90 0 min 0,0 UV-I 12,4 C 23,2 C 0,0 km/h (0 Bft)
11.06.2013 20:00 21,3 C 22,1 C 18,7 C 23,1 C 23,1 C 1,8 C 56 % 71 % 47 % 1015,1 hPa 0,0 l/m 0,0 km/h (0 Bft) W-SW 247 5 min 0,0 UV-I 12,2 C 23,1 C 0,0 km/h (0 Bft)
11.06.2013 20:05 21,0 C 22,1 C 18,5 C 22,9 C 22,9 C 1,9 C 57 % 72 % 50 % 1015,1 hPa 0,0 l/m 0,0 km/h (0 Bft) O-NO 67 5 min 0,0 UV-I 12,1 C 22,9 C 0,0 km/h (0 Bft)
11.06.2013 20:10 20,5 C 22,1 C 18,3 C 21,7 C 21,7 C 1,2 C 58 % 73 % 32 % 1015,1 hPa 0,0 l/m 0,0 km/h (0 Bft) O-NO 67 0 min 0,0 UV-I 11,9 C 21,7 C 0,0 km/h (0 Bft)
11.06.2013 20:15 20,3 C 22,1 C 18,1 C 21,0 C 21,0 C 0,7 C 59 % 73 % 18 % 1015,3 hPa 0,0 l/m 0,0 km/h (0 Bft) O-NO 67 0 min 0,0 UV-I 12,0 C 21,0 C 0,0 km/h (0 Bft)
11.06.2013 20:20 20,0 C 22,1 C 17,9 C 20,0 C 20,0 C 0,0 C 62 % 75 % 0 % 1015,3 hPa 0,0 l/m 0,0 km/h (0 Bft) O-NO 67 0 min 0,0 UV-I 12,5 C 20,0 C 0,0 km/h (0 Bft)
11.06.2013 20:25 19,9 C 22,1 C 17,7 C 19,7 C 19,4 C 0,0 C 64 % 76 % 0 % 1015,3 hPa 0,0 l/m 0,0 km/h (0 Bft) O-NO 67 0 min 0,0 UV-I 12,9 C 19,4 C 0,0 km/h (0 Bft)
11.06.2013 20:30 19,7 C 22,2 C 17,5 C 19,3 C 18,6 C 0,0 C 65 % 77 % 0 % 1015,3 hPa 0,0 l/m 0,0 km/h (0 Bft) O-NO 67 0 min 0,0 UV-I 12,9 C 18,6 C 0,0 km/h (0 Bft)
11.06.2013 20:35 19,5 C 22,2 C 17,3 C 19,0 C 18,1 C 0,0 C 66 % 77 % 0 % 1015,2 hPa 0,0 l/m 0,0 km/h (0 Bft) O-NO 67 0 min 0,0 UV-I 13,0 C 18,1 C 0,0 km/h (0 Bft)
11.06.2013 20:40 19,0 C 22,2 C 17,1 C 18,5 C 17,5 C 0,0 C 68 % 78 % 0 % 1015,2 hPa 0,0 l/m 0,0 km/h (0 Bft) O-NO 67 0 min 0,0 UV-I 13,0 C 17,5 C 0,0 km/h (0 Bft)
11.06.2013 20:45 18,8 C 22,2 C 16,9 C 18,3 C 17,2 C 0,0 C 68 % 78 % 0 % 1015,2 hPa 0,0 l/m 0,0 km/h (0 Bft) O-NO 67 0 min 0,0 UV-I 12,8 C 17,2 C 0,0 km/h (0 Bft)
11.06.2013 20:50 18,5 C 22,2 C 16,8 C 17,9 C 16,8 C 0,0 C 70 % 79 % 0 % 1015,2 hPa 0,0 l/m 0,0 km/h (0 Bft) S-SW 202 0 min 0,0 UV-I 12,9 C 16,8 C 0,0 km/h (0 Bft)
11.06.2013 20:55 18,4 C 22,2 C 16,7 C 17,8 C 16,5 C 0,0 C 71 % 79 % 0 % 1015,4 hPa 0,0 l/m 0,0 km/h (0 Bft) SW 225 0 min 0,0 UV-I 13,0 C 16,5 C 0,0 km/h (0 Bft)
11.06.2013 21:00 18,0 C 22,3 C 16,4 C 17,4 C 16,2 C 0,0 C 71 % 79 % 0 % 1015,4 hPa 0,0 l/m 0,0 km/h (0 Bft) S-SW 202 0 min 0,0 UV-I 12,7 C 16,2 C 0,0 km/h (0 Bft)
11.06.2013 21:05 17,8 C 22,2 C 16,3 C 17,2 C 15,9 C 0,0 C 72 % 79 % 0 % 1015,4 hPa 0,0 l/m 0,0 km/h (0 Bft) S-SW 202 0 min 0,0 UV-I 12,7 C 15,9 C 0,0 km/h (0 Bft)
11.06.2013 21:10 17,4 C 22,3 C 16,1 C 16,8 C 15,6 C 0,0 C 73 % 79 % 0 % 1015,4 hPa 0,0 l/m 0,0 km/h (0 Bft) S-SW 202 0 min 0,0 UV-I 12,5 C 15,6 C 0,0 km/h (0 Bft)
11.06.2013 21:15 17,2 C 22,4 C 16,0 C 16,6 C 15,3 C 0,0 C 74 % 80 % 0 % 1015,4 hPa 0,0 l/m 0,0 km/h (0 Bft) S-SW 202 0 min 0,0 UV-I 12,5 C 15,3 C 0,0 km/h (0 Bft)
11.06.2013 21:20 17,1 C 22,4 C 15,7 C 16,4 C 14,9 C 0,0 C 75 % 80 % 0 % 1015,4 hPa 0,0 l/m 0,0 km/h (0 Bft) SW 225 0 min 0,0 UV-I 12,6 C 14,9 C 0,0 km/h (0 Bft)
11.06.2013 21:25 16,9 C 22,4 C 15,6 C 16,1 C 14,6 C 0,0 C 75 % 81 % 0 % 1015,4 hPa 0,0 l/m 0,0 km/h (0 Bft) S-SW 202 0 min 0,0 UV-I 12,4 C 14,6 C 0,0 km/h (0 Bft)
11.06.2013 21:30 16,5 C 22,5 C 15,4 C 15,8 C 14,4 C 0,0 C 76 % 80 % 0 % 1015,4 hPa 0,0 l/m 0,0 km/h (0 Bft) W 270 0 min 0,0 UV-I 12,3 C 14,4 C 0,0 km/h (0 Bft)
11.06.2013 21:35 16,3 C 22,5 C 15,3 C 15,6 C 14,3 C 0,0 C 76 % 80 % 0 % 1015,6 hPa 0,0 l/m 0,0 km/h (0 Bft) SW 225 0 min 0,0 UV-I 12,1 C 14,3 C 0,0 km/h (0 Bft)
11.06.2013 21:40 16,0 C 22,5 C 15,1 C 15,3 C 14,0 C 0,0 C 77 % 81 % 0 % 1015,6 hPa 0,0 l/m 0,0 km/h (0 Bft) SO 135 0 min 0,0 UV-I 12,0 C 14,0 C 0,0 km/h (0 Bft)
11.06.2013 21:45 15,9 C 22,5 C 15,1 C 15,2 C 13,9 C 0,0 C 78 % 81 % 0 % 1015,6 hPa 0,0 l/m 0,0 km/h (0 Bft) O-SO 112 0 min 0,0 UV-I 12,1 C 13,9 C 0,0 km/h (0 Bft)
11.06.2013 21:50 15,6 C 22,5 C 14,9 C 15,0 C 13,8 C 0,0 C 79 % 81 % 0 % 1015,6 hPa 0,0 l/m 0,0 km/h (0 Bft) O-NO 67 0 min 0,0 UV-I 12,0 C 13,8 C 0,0 km/h (0 Bft)
11.06.2013 21:55 15,5 C 22,5 C 14,9 C 14,9 C 13,6 C 0,0 C 80 % 82 % 0 % 1015,8 hPa 0,0 l/m 0,0 km/h (0 Bft) W-SW 247 0 min 0,0 UV-I 12,1 C 13,6 C 0,0 km/h (0 Bft)
11.06.2013 22:00 15,3 C 22,5 C 14,7 C 14,6 C 13,3 C 0,0 C 80 % 82 % 0 % 1015,8 hPa 0,0 l/m 0,0 km/h (0 Bft) W-SW 247 0 min 0,0 UV-I 11,9 C 13,3 C 0,0 km/h (0 Bft)
11.06.2013 22:05 15,1 C 22,5 C 14,5 C 14,5 C 13,2 C 0,0 C 80 % 82 % 0 % 1015,8 hPa 0,0 l/m 0,0 km/h (0 Bft) SW 225 0 min 0,0 UV-I 11,7 C 13,2 C 0,0 km/h (0 Bft)
11.06.2013 22:10 14,9 C 22,6 C 14,4 C 14,3 C 13,0 C 0,0 C 81 % 82 % 0 % 1015,8 hPa 0,0 l/m 0,0 km/h (0 Bft) SW 225 0 min 0,0 UV-I 11,7 C 13,0 C 0,0 km/h (0 Bft)
11.06.2013 22:15 14,7 C 22,5 C 14,3 C 14,1 C 12,8 C 0,0 C 81 % 82 % 0 % 1015,9 hPa 0,0 l/m 0,0 km/h (0 Bft) SW 225 0 min 0,0 UV-I 11,5 C 12,8 C 0,0 km/h (0 Bft)
11.06.2013 22:20 14,5 C 22,6 C 14,1 C 13,9 C 12,7 C 0,0 C 81 % 82 % 0 % 1015,9 hPa 0,0 l/m 0,0 km/h (0 Bft) S 180 0 min 0,0 UV-I 11,3 C 12,7 C 0,0 km/h (0 Bft)
11.06.2013 22:25 14,3 C 22,6 C 14,1 C 13,8 C 12,7 C 0,0 C 82 % 82 % 0 % 1015,9 hPa 0,0 l/m 0,0 km/h (0 Bft) O-NO 67 0 min 0,0 UV-I 11,3 C 12,7 C 0,0 km/h (0 Bft)
11.06.2013 22:30 14,1 C 22,6 C 14,0 C 13,6 C 12,7 C 0,0 C 83 % 83 % 0 % 1015,9 hPa 0,0 l/m 0,0 km/h (0 Bft) O-NO 67 0 min 0,0 UV-I 11,3 C 12,7 C 0,0 km/h (0 Bft)
11.06.2013 22:35 13,9 C 22,6 C 13,9 C 13,5 C 12,7 C 0,0 C 83 % 83 % 0 % 1016,2 hPa 0,0 l/m 0,0 km/h (0 Bft) N-NO 22 0 min 0,0 UV-I 11,1 C 12,7 C 0,0 km/h (0 Bft)
11.06.2013 22:40 13,6 C 22,5 C 13,9 C 13,2 C 12,4 C 0,0 C 83 % 83 % 0 % 1016,2 hPa 0,0 l/m 0,0 km/h (0 Bft) S 180 0 min 0,0 UV-I 10,8 C 12,4 C 0,0 km/h (0 Bft)
11.06.2013 22:45 13,5 C 22,5 C 13,6 C 13,1 C 12,3 C 0,0 C 83 % 82 % 0 % 1016,2 hPa 0,0 l/m 0,0 km/h (0 Bft) W-SW 247 0 min 0,0 UV-I 10,7 C 12,3 C 0,0 km/h (0 Bft)
11.06.2013 22:50 13,2 C 22,6 C 13,6 C 12,9 C 12,2 C 0,0 C 84 % 82 % 0 % 1016,2 hPa 0,0 l/m 0,0 km/h (0 Bft) W 270 0 min 0,0 UV-I 10,6 C 12,2 C 0,0 km/h (0 Bft)
11.06.2013 22:55 13,1 C 22,7 C 13,5 C 12,8 C 12,1 C 0,0 C 84 % 82 % 0 % 1016,2 hPa 0,0 l/m 0,0 km/h (0 Bft) W 270 0 min 0,0 UV-I 10,5 C 12,1 C 0,0 km/h (0 Bft)
11.06.2013 23:00 12,9 C 22,6 C 13,4 C 12,6 C 12,0 C 0,0 C 84 % 82 % 0 % 1016,2 hPa 0,0 l/m 0,0 km/h (0 Bft) W-SW 247 0 min 0,0 UV-I 10,3 C 12,0 C 0,0 km/h (0 Bft)
11.06.2013 23:05 12,8 C 22,6 C 13,3 C 12,5 C 11,9 C 0,0 C 84 % 82 % 0 % 1016,2 hPa 0,0 l/m 0,0 km/h (0 Bft) W 270 0 min 0,0 UV-I 10,2 C 11,9 C 0,0 km/h (0 Bft)
11.06.2013 23:10 12,6 C 22,6 C 13,3 C 12,3 C 11,8 C 0,0 C 84 % 83 % 0 % 1016,2 hPa 0,0 l/m 0,0 km/h (0 Bft) SW 225 0 min 0,0 UV-I 10,0 C 11,8 C 0,0 km/h (0 Bft)
11.06.2013 23:15 12,4 C 22,6 C 13,1 C 12,2 C 11,8 C 0,0 C 85 % 83 % 0 % 1016,3 hPa 0,0 l/m 0,0 km/h (0 Bft) W 270 0 min 0,0 UV-I 9,9 C 11,8 C 0,0 km/h (0 Bft)
11.06.2013 23:20 12,2 C 22,7 C 13,1 C 12,0 C 11,7 C 0,0 C 85 % 83 % 0 % 1016,3 hPa 0,0 l/m 0,2 km/h (0 Bft) W-NW 292 0 min 0,0 UV-I 9,8 C 11,7 C 0,0 km/h (0 Bft)
11.06.2013 23:25 12,1 C 22,7 C 13,1 C 11,9 C 11,6 C 0,0 C 85 % 83 % 0 % 1016,3 hPa 0,0 l/m 0,2 km/h (0 Bft) O-SO 112 0 min 0,0 UV-I 9,7 C 11,6 C 0,0 km/h (0 Bft)
11.06.2013 23:30 12,0 C 22,7 C 13,1 C 11,9 C 11,7 C 0,0 C 85 % 83 % 0 % 1016,3 hPa 0,0 l/m 0,2 km/h (0 Bft) O-SO 112 0 min 0,0 UV-I 9,6 C 11,7 C 0,0 km/h (0 Bft)
11.06.2013 23:35 11,9 C 22,6 C 12,9 C 11,8 C 11,7 C 0,0 C 86 % 83 % 0 % 1016,4 hPa 0,0 l/m 0,0 km/h (0 Bft) W-SW 247 0 min 0,0 UV-I 9,6 C 11,7 C 0,0 km/h (0 Bft)
11.06.2013 23:40 11,7 C 22,7 C 12,8 C 11,7 C 11,7 C 0,0 C 86 % 83 % 0 % 1016,4 hPa 0,0 l/m 0,2 km/h (0 Bft) O-NO 67 0 min 0,0 UV-I 9,4 C 11,7 C 0,0 km/h (0 Bft)
11.06.2013 23:45 11,6 C 22,7 C 12,9 C 11,7 C 11,7 C 0,1 C 86 % 83 % 0 % 1016,4 hPa 0,0 l/m 0,2 km/h (0 Bft) O 90 0 min 0,0 UV-I 9,3 C 11,7 C 0,0 km/h (0 Bft)
11.06.2013 23:50 11,5 C 22,6 C 12,7 C 11,5 C 11,4 C 0,0 C 86 % 83 % 0 % 1016,4 hPa 0,0 l/m 0,0 km/h (0 Bft) W 270 0 min 0,0 UV-I 9,2 C 11,4 C 0,0 km/h (0 Bft)
11.06.2013 23:55 11,4 C 22,6 C 12,6 C 11,4 C 11,3 C 0,0 C 86 % 83 % 0 % 1016,5 hPa 0,0 l/m 0,0 km/h (0 Bft) W-SW 247 0 min 0,0 UV-I 9,1 C 11,3 C 0,0 km/h (0 Bft)
_ Min-Zeit 05:20 10:20 05:15 04:55 04:55 01:00 15:10 15:20 00:00 00:00 - 00:00 - - - 00:00 05:20 04:55 00:00
Minimum _ 7,8 C 20,9 C 9,6 C 8,2 C 8,2 C 0,0 C 46 % 57 % 0 % 1010,7 hPa - 0,0 km/h (0 Bft) - - - 0,0 UV-I 6,4 C 8,2 C 0,0 km/h (0 Bft)
_ Max-Zeit 15:10 22:55 15:15 15:15 15:15 09:40 07:20 01:40 07:45 23:55 00:00 15:40 - - 13:00 07:20 11:15 15:15 14:20
Maximum _ 23,1 C 22,7 C 20,8 C 29,1 C 29,1 C 10,0 C 93 % 87 % 100 % 1016,5 hPa 0,0 l/m 5,0 km/h
O-NO (1 Bft)
- - 19 min 0,5 UV-I 14,4 C 29,1 C 9,5 km/h
S (2 Bft)
Durchschnitt _ 15,3 C 21,7 C 15,1 C 18,2 C 18,0 C 3,0 C 75 % 78 % 53 % 1014,0 hPa #0,0 l/m 0,8 km/h (0 Bft) O-NO - #11:00 h 0,2 UV-I 10,5 C 18,0 C 1,1 km/h (1 Bft)
2013 www.wetterstation-wechselburg.de